Skip Navigation LinksHome page > Weather > Current weather Skip Navigation Links

Current Weather

Eureka, Nunavut

For information only: do not use for flight planning or navigation.
Latest weather
Observation time Monday, May 22, 2017 10:31 AM CDT
Local time Monday, May 22, 2017 10:40 AM CDT
Flight conditions Marginal Visual Meteorological Conditions
Winds
Wind direction Southeast (140°)
Wind speed 18 mph
Visibility 15 mi.
Sky condition
Ceiling 1,800 ft. broken clouds
Cloud layer few clouds 1,000 ft.
Cloud layer broken clouds 1,800 ft.
Cloud layer broken clouds 2,700 ft.
Cloud layer overcast 6,000 ft.
Temperature 28°F
Dewpoint 23°F
Altimeter 30.03 in.Hg
Derived measurements
Relative humidity 80%
Wind chill 16°F
Density altitude -2113 ft.
Sea-level pressure 30.04 in.Hg
Remarks
Special weather observation.
METAR SPECI CWEU 221531Z 14016KT 15SM FEW010 BKN018 BKN027 OVC060 M02/M05 A3003 RMK SC1SC5SC1SC1 SLP172

Settings

Location code

InnerDrive.Weather 4.0.6144.1 Release CLR 4.0.30319.36366
Copyright ©2015 Inner Drive Technology. All rights reserved. Portions Copyright ©1986-2015 David Braverman.

Find weather

Site navigation


Skip Navigation Links

Place info

Page info

PayPal - The safer, easier way to pay online!

Return home.

Copyright ©2017 Inner Drive Technology. Purveyors of fine, hand-crafted computer software. Page printed 2017-05-22T15:40:25 UTC.